Terminal Aerodrome Forecast
Issued by NWS

Current Version | Previous Version | Graphics & Text | Print | Product List | Glossary On
Versions: 1 2 3 4 5 6 7 8 9 10 11 12 13 14 15 16 17 18 19 20 21
140
FTUS41 KILN 231300 AAA
TAFLUK
TAF AMD
KLUK 231300Z 2313/2412 00000KT 6SM BR SCT010 SCT035 SCT250
      TEMPO 2313/2314 BKN010
     FM231400 25005KT P6SM FEW050 SCT250
     FM240100 00000KT P6SM SCT250
     FM240600 00000KT 4SM BR SCT250
      TEMPO 2407/2411 1/2SM FG=

USA.gov is the U.S. government's official web portal to all federal, state and local government web resources and services.